sensor_id;sensor_type;location;lat;lon;timestamp;temperature;humidity
1337;DHT22;662;48.814;9.318;2023-12-14T00:00:18;9.20;82.30
1337;DHT22;662;48.814;9.318;2023-12-14T00:02:44;9.20;82.30
1337;DHT22;662;48.814;9.318;2023-12-14T00:05:10;9.20;82.30
1337;DHT22;662;48.814;9.318;2023-12-14T00:07:36;9.20;82.40
1337;DHT22;662;48.814;9.318;2023-12-14T00:10:02;9.20;82.40
1337;DHT22;662;48.814;9.318;2023-12-14T00:12:29;9.20;82.40
1337;DHT22;662;48.814;9.318;2023-12-14T00:14:54;9.20;82.40
1337;DHT22;662;48.814;9.318;2023-12-14T00:17:20;9.20;82.40
1337;DHT22;662;48.814;9.318;2023-12-14T00:19:45;9.20;82.30
1337;DHT22;662;48.814;9.318;2023-12-14T00:22:11;9.20;82.30
1337;DHT22;662;48.814;9.318;2023-12-14T00:24:37;9.30;82.40
1337;DHT22;662;48.814;9.318;2023-12-14T00:27:02;9.20;82.20
1337;DHT22;662;48.814;9.318;2023-12-14T00:29:28;9.20;82.30
1337;DHT22;662;48.814;9.318;2023-12-14T00:31:53;9.30;82.50
1337;DHT22;662;48.814;9.318;2023-12-14T00:34:19;9.30;82.50
1337;DHT22;662;48.814;9.318;2023-12-14T00:36:45;9.20;82.40
1337;DHT22;662;48.814;9.318;2023-12-14T00:39:10;9.30;82.50
1337;DHT22;662;48.814;9.318;2023-12-14T00:41:36;9.30;82.50
1337;DHT22;662;48.814;9.318;2023-12-14T00:44:02;9.30;82.40
1337;DHT22;662;48.814;9.318;2023-12-14T00:46:27;9.30;82.40
1337;DHT22;662;48.814;9.318;2023-12-14T00:48:53;9.20;82.30
1337;DHT22;662;48.814;9.318;2023-12-14T00:51:19;9.20;82.30
1337;DHT22;662;48.814;9.318;2023-12-14T00:53:44;9.20;82.30
1337;DHT22;662;48.814;9.318;2023-12-14T00:56:10;9.20;82.30
1337;DHT22;662;48.814;9.318;2023-12-14T00:58:36;9.20;82.30
1337;DHT22;662;48.814;9.318;2023-12-14T01:01:01;9.20;82.30
1337;DHT22;662;48.814;9.318;2023-12-14T01:03:27;9.20;82.20
1337;DHT22;662;48.814;9.318;2023-12-14T01:05:54;9.20;82.20
1337;DHT22;662;48.814;9.318;2023-12-14T01:08:19;9.20;82.30
1337;DHT22;662;48.814;9.318;2023-12-14T01:10:45;9.20;82.30
1337;DHT22;662;48.814;9.318;2023-12-14T01:13:10;9.20;82.30
1337;DHT22;662;48.814;9.318;2023-12-14T01:15:37;9.20;82.40
1337;DHT22;662;48.814;9.318;2023-12-14T01:18:02;9.20;82.40
1337;DHT22;662;48.814;9.318;2023-12-14T01:20:28;9.20;82.40
1337;DHT22;662;48.814;9.318;2023-12-14T01:22:54;9.20;82.50
1337;DHT22;662;48.814;9.318;2023-12-14T01:25:20;9.20;82.60
1337;DHT22;662;48.814;9.318;2023-12-14T01:27:45;9.20;82.60
1337;DHT22;662;48.814;9.318;2023-12-14T01:30:11;9.20;82.60
1337;DHT22;662;48.814;9.318;2023-12-14T01:32:37;9.20;82.60
1337;DHT22;662;48.814;9.318;2023-12-14T01:35:03;9.20;82.50
1337;DHT22;662;48.814;9.318;2023-12-14T01:37:29;9.20;82.50
1337;DHT22;662;48.814;9.318;2023-12-14T01:39:55;9.20;82.40
1337;DHT22;662;48.814;9.318;2023-12-14T01:42:20;9.20;82.40
1337;DHT22;662;48.814;9.318;2023-12-14T01:44:46;9.20;82.40
1337;DHT22;662;48.814;9.318;2023-12-14T01:47:12;9.20;82.40
1337;DHT22;662;48.814;9.318;2023-12-14T01:49:37;9.20;82.30
1337;DHT22;662;48.814;9.318;2023-12-14T01:52:03;9.20;82.30
1337;DHT22;662;48.814;9.318;2023-12-14T01:54:29;9.10;82.20
1337;DHT22;662;48.814;9.318;2023-12-14T01:56:54;9.10;82.20
1337;DHT22;662;48.814;9.318;2023-12-14T01:59:20;9.10;82.20
1337;DHT22;662;48.814;9.318;2023-12-14T02:01:47;9.10;82.20
1337;DHT22;662;48.814;9.318;2023-12-14T02:04:17;9.10;82.20
1337;DHT22;662;48.814;9.318;2023-12-14T02:06:43;9.10;82.20
1337;DHT22;662;48.814;9.318;2023-12-14T02:09:09;9.10;82.20
1337;DHT22;662;48.814;9.318;2023-12-14T02:11:35;9.10;82.30
1337;DHT22;662;48.814;9.318;2023-12-14T02:14:05;9.10;82.30
1337;DHT22;662;48.814;9.318;2023-12-14T02:16:31;9.10;82.30
1337;DHT22;662;48.814;9.318;2023-12-14T02:18:57;9.10;82.30
1337;DHT22;662;48.814;9.318;2023-12-14T02:21:22;9.10;82.30
1337;DHT22;662;48.814;9.318;2023-12-14T02:23:48;9.10;82.30
1337;DHT22;662;48.814;9.318;2023-12-14T02:26:14;9.10;82.40
1337;DHT22;662;48.814;9.318;2023-12-14T02:28:40;9.10;82.40
1337;DHT22;662;48.814;9.318;2023-12-14T02:31:06;9.10;82.40
1337;DHT22;662;48.814;9.318;2023-12-14T02:33:32;9.10;82.50
1337;DHT22;662;48.814;9.318;2023-12-14T02:35:57;9.20;82.60
1337;DHT22;662;48.814;9.318;2023-12-14T02:38:23;9.10;82.50
1337;DHT22;662;48.814;9.318;2023-12-14T02:40:49;9.20;82.60
1337;DHT22;662;48.814;9.318;2023-12-14T02:43:18;9.10;82.50
1337;DHT22;662;48.814;9.318;2023-12-14T02:45:45;9.10;82.50
1337;DHT22;662;48.814;9.318;2023-12-14T02:48:11;9.10;82.50
1337;DHT22;662;48.814;9.318;2023-12-14T02:50:37;9.10;82.60
1337;DHT22;662;48.814;9.318;2023-12-14T02:53:02;9.10;82.60
1337;DHT22;662;48.814;9.318;2023-12-14T02:55:28;9.10;82.60
1337;DHT22;662;48.814;9.318;2023-12-14T02:57:54;9.10;82.60
1337;DHT22;662;48.814;9.318;2023-12-14T03:00:19;9.10;82.70
1337;DHT22;662;48.814;9.318;2023-12-14T03:02:45;9.10;82.70
1337;DHT22;662;48.814;9.318;2023-12-14T03:05:11;9.10;82.60
1337;DHT22;662;48.814;9.318;2023-12-14T03:07:37;9.10;82.60
1337;DHT22;662;48.814;9.318;2023-12-14T03:10:03;9.10;82.60
1337;DHT22;662;48.814;9.318;2023-12-14T03:12:29;9.20;82.80
1337;DHT22;662;48.814;9.318;2023-12-14T03:14:55;9.10;82.70
1337;DHT22;662;48.814;9.318;2023-12-14T03:17:20;9.10;82.70
1337;DHT22;662;48.814;9.318;2023-12-14T03:19:46;9.20;82.80
1337;DHT22;662;48.814;9.318;2023-12-14T03:22:12;9.20;82.80
1337;DHT22;662;48.814;9.318;2023-12-14T03:24:38;9.20;82.80
1337;DHT22;662;48.814;9.318;2023-12-14T03:27:04;9.20;82.80
1337;DHT22;662;48.814;9.318;2023-12-14T03:29:29;9.10;82.80
1337;DHT22;662;48.814;9.318;2023-12-14T03:31:56;9.20;82.80
1337;DHT22;662;48.814;9.318;2023-12-14T03:34:21;9.20;82.90
1337;DHT22;662;48.814;9.318;2023-12-14T03:36:47;9.20;83.00
1337;DHT22;662;48.814;9.318;2023-12-14T03:39:13;9.20;83.00
1337;DHT22;662;48.814;9.318;2023-12-14T03:41:38;9.20;82.90
1337;DHT22;662;48.814;9.318;2023-12-14T03:44:04;9.20;82.90
1337;DHT22;662;48.814;9.318;2023-12-14T03:46:30;9.20;83.00
1337;DHT22;662;48.814;9.318;2023-12-14T03:48:55;9.20;83.00
1337;DHT22;662;48.814;9.318;2023-12-14T03:51:21;9.20;83.00
1337;DHT22;662;48.814;9.318;2023-12-14T03:53:47;9.20;83.00
1337;DHT22;662;48.814;9.318;2023-12-14T03:56:13;9.30;83.10
1337;DHT22;662;48.814;9.318;2023-12-14T03:58:38;9.20;82.90
1337;DHT22;662;48.814;9.318;2023-12-14T04:01:04;9.30;83.00
1337;DHT22;662;48.814;9.318;2023-12-14T04:03:30;9.20;83.00
1337;DHT22;662;48.814;9.318;2023-12-14T04:05:58;9.20;83.00
1337;DHT22;662;48.814;9.318;2023-12-14T04:08:24;9.30;83.10
1337;DHT22;662;48.814;9.318;2023-12-14T04:10:49;9.30;83.10
1337;DHT22;662;48.814;9.318;2023-12-14T04:13:15;9.30;83.00
1337;DHT22;662;48.814;9.318;2023-12-14T04:15:41;9.30;83.70
1337;DHT22;662;48.814;9.318;2023-12-14T04:18:07;9.30;83.10
1337;DHT22;662;48.814;9.318;2023-12-14T04:20:33;9.20;82.90
1337;DHT22;662;48.814;9.318;2023-12-14T04:22:59;9.20;82.90
1337;DHT22;662;48.814;9.318;2023-12-14T04:25:25;9.20;82.90
1337;DHT22;662;48.814;9.318;2023-12-14T04:27:50;9.20;82.90
1337;DHT22;662;48.814;9.318;2023-12-14T04:30:16;9.20;82.90
1337;DHT22;662;48.814;9.318;2023-12-14T04:32:42;9.30;83.00
1337;DHT22;662;48.814;9.318;2023-12-14T04:35:08;9.20;82.90
1337;DHT22;662;48.814;9.318;2023-12-14T04:37:33;9.30;83.00
1337;DHT22;662;48.814;9.318;2023-12-14T04:39:59;9.30;83.10
1337;DHT22;662;48.814;9.318;2023-12-14T04:42:25;9.30;83.10
1337;DHT22;662;48.814;9.318;2023-12-14T04:44:50;9.30;83.10
1337;DHT22;662;48.814;9.318;2023-12-14T04:47:16;9.20;83.00
1337;DHT22;662;48.814;9.318;2023-12-14T04:49:42;9.30;83.10
1337;DHT22;662;48.814;9.318;2023-12-14T04:52:07;9.20;83.00
1337;DHT22;662;48.814;9.318;2023-12-14T04:54:34;9.30;83.20
1337;DHT22;662;48.814;9.318;2023-12-14T04:57:03;9.20;83.00
1337;DHT22;662;48.814;9.318;2023-12-14T04:59:29;9.30;83.20
1337;DHT22;662;48.814;9.318;2023-12-14T05:01:55;9.30;83.20
1337;DHT22;662;48.814;9.318;2023-12-14T05:04:20;9.30;83.20
1337;DHT22;662;48.814;9.318;2023-12-14T05:06:46;9.30;83.20
1337;DHT22;662;48.814;9.318;2023-12-14T05:09:12;9.30;83.30
1337;DHT22;662;48.814;9.318;2023-12-14T05:11:39;9.30;83.30
1337;DHT22;662;48.814;9.318;2023-12-14T05:14:05;9.30;83.30
1337;DHT22;662;48.814;9.318;2023-12-14T05:16:31;9.30;83.30
1337;DHT22;662;48.814;9.318;2023-12-14T05:18:56;9.30;83.30
1337;DHT22;662;48.814;9.318;2023-12-14T05:21:23;9.30;83.30
1337;DHT22;662;48.814;9.318;2023-12-14T05:23:49;9.30;83.40
1337;DHT22;662;48.814;9.318;2023-12-14T05:26:14;9.30;83.40
1337;DHT22;662;48.814;9.318;2023-12-14T05:28:41;9.30;83.40
1337;DHT22;662;48.814;9.318;2023-12-14T05:31:06;9.30;83.40
1337;DHT22;662;48.814;9.318;2023-12-14T05:33:36;9.40;83.50
1337;DHT22;662;48.814;9.318;2023-12-14T05:36:02;9.40;83.50
1337;DHT22;662;48.814;9.318;2023-12-14T05:38:31;9.40;83.50
1337;DHT22;662;48.814;9.318;2023-12-14T05:40:57;9.40;83.40
1337;DHT22;662;48.814;9.318;2023-12-14T05:43:22;9.40;83.50
1337;DHT22;662;48.814;9.318;2023-12-14T05:45:48;9.40;83.50
1337;DHT22;662;48.814;9.318;2023-12-14T05:48:14;9.40;83.50
1337;DHT22;662;48.814;9.318;2023-12-14T05:50:40;9.40;83.60
1337;DHT22;662;48.814;9.318;2023-12-14T05:53:05;9.40;83.50
1337;DHT22;662;48.814;9.318;2023-12-14T05:55:31;9.50;83.70
1337;DHT22;662;48.814;9.318;2023-12-14T05:57:56;9.50;83.70
1337;DHT22;662;48.814;9.318;2023-12-14T06:00:22;9.50;83.70
1337;DHT22;662;48.814;9.318;2023-12-14T06:02:48;9.50;83.80
1337;DHT22;662;48.814;9.318;2023-12-14T06:05:17;9.40;83.60
1337;DHT22;662;48.814;9.318;2023-12-14T06:07:42;9.50;83.70
1337;DHT22;662;48.814;9.318;2023-12-14T06:10:09;9.50;83.60
1337;DHT22;662;48.814;9.318;2023-12-14T06:12:35;9.50;83.60
1337;DHT22;662;48.814;9.318;2023-12-14T06:15:01;9.50;83.50
1337;DHT22;662;48.814;9.318;2023-12-14T06:17:27;9.50;83.50
1337;DHT22;662;48.814;9.318;2023-12-14T06:19:53;9.50;83.30
1337;DHT22;662;48.814;9.318;2023-12-14T06:22:18;9.50;83.20
1337;DHT22;662;48.814;9.318;2023-12-14T06:24:44;9.40;83.20
1337;DHT22;662;48.814;9.318;2023-12-14T06:27:11;9.40;83.30
1337;DHT22;662;48.814;9.318;2023-12-14T06:29:36;9.40;83.40
1337;DHT22;662;48.814;9.318;2023-12-14T06:32:02;9.40;83.40
1337;DHT22;662;48.814;9.318;2023-12-14T06:34:27;9.40;83.40
1337;DHT22;662;48.814;9.318;2023-12-14T06:36:53;9.40;83.50
1337;DHT22;662;48.814;9.318;2023-12-14T06:39:22;9.40;83.50
1337;DHT22;662;48.814;9.318;2023-12-14T06:41:48;9.40;83.50
1337;DHT22;662;48.814;9.318;2023-12-14T06:44:17;9.50;83.60
1337;DHT22;662;48.814;9.318;2023-12-14T06:46:43;9.50;83.50
1337;DHT22;662;48.814;9.318;2023-12-14T06:49:09;9.50;83.50
1337;DHT22;662;48.814;9.318;2023-12-14T06:51:34;9.50;83.40
1337;DHT22;662;48.814;9.318;2023-12-14T06:54:00;9.50;83.40
1337;DHT22;662;48.814;9.318;2023-12-14T06:56:26;9.50;84.00
1337;DHT22;662;48.814;9.318;2023-12-14T06:58:51;9.50;83.40
1337;DHT22;662;48.814;9.318;2023-12-14T07:01:17;9.50;83.40
1337;DHT22;662;48.814;9.318;2023-12-14T07:03:46;9.50;83.40
1337;DHT22;662;48.814;9.318;2023-12-14T07:06:12;9.60;83.50
1337;DHT22;662;48.814;9.318;2023-12-14T07:08:39;9.60;83.50
1337;DHT22;662;48.814;9.318;2023-12-14T07:11:06;9.60;83.40
1337;DHT22;662;48.814;9.318;2023-12-14T07:13:32;9.60;83.30
1337;DHT22;662;48.814;9.318;2023-12-14T07:15:58;9.60;83.40
1337;DHT22;662;48.814;9.318;2023-12-14T07:18:24;9.60;83.40
1337;DHT22;662;48.814;9.318;2023-12-14T07:20:50;9.60;83.40
1337;DHT22;662;48.814;9.318;2023-12-14T07:23:15;9.60;83.40
1337;DHT22;662;48.814;9.318;2023-12-14T07:25:41;9.60;83.50
1337;DHT22;662;48.814;9.318;2023-12-14T07:28:06;9.60;83.50
1337;DHT22;662;48.814;9.318;2023-12-14T07:30:32;9.60;83.50
1337;DHT22;662;48.814;9.318;2023-12-14T07:32:58;9.60;83.40
1337;DHT22;662;48.814;9.318;2023-12-14T07:35:23;9.70;83.60
1337;DHT22;662;48.814;9.318;2023-12-14T07:37:49;9.60;83.50
1337;DHT22;662;48.814;9.318;2023-12-14T07:40:15;9.70;83.60
1337;DHT22;662;48.814;9.318;2023-12-14T07:42:40;9.70;83.50
1337;DHT22;662;48.814;9.318;2023-12-14T07:45:07;9.70;83.50
1337;DHT22;662;48.814;9.318;2023-12-14T07:47:34;9.70;83.50
1337;DHT22;662;48.814;9.318;2023-12-14T07:50:00;9.80;83.50
1337;DHT22;662;48.814;9.318;2023-12-14T07:52:26;9.80;83.50
1337;DHT22;662;48.814;9.318;2023-12-14T07:54:51;9.80;83.50
1337;DHT22;662;48.814;9.318;2023-12-14T07:57:17;9.80;83.50
1337;DHT22;662;48.814;9.318;2023-12-14T07:59:43;9.80;83.50
1337;DHT22;662;48.814;9.318;2023-12-14T08:02:08;9.80;83.40
1337;DHT22;662;48.814;9.318;2023-12-14T08:04:34;9.80;83.40
1337;DHT22;662;48.814;9.318;2023-12-14T08:06:59;9.80;83.40
1337;DHT22;662;48.814;9.318;2023-12-14T08:09:25;9.80;83.30
1337;DHT22;662;48.814;9.318;2023-12-14T08:11:51;9.80;83.30
1337;DHT22;662;48.814;9.318;2023-12-14T08:14:17;9.80;83.30
1337;DHT22;662;48.814;9.318;2023-12-14T08:16:43;9.80;83.30
1337;DHT22;662;48.814;9.318;2023-12-14T08:19:09;9.80;83.30
1337;DHT22;662;48.814;9.318;2023-12-14T08:21:34;9.90;83.40
1337;DHT22;662;48.814;9.318;2023-12-14T08:24:00;9.80;83.30
1337;DHT22;662;48.814;9.318;2023-12-14T08:26:25;9.80;83.90
1337;DHT22;662;48.814;9.318;2023-12-14T08:28:51;9.90;83.40
1337;DHT22;662;48.814;9.318;2023-12-14T08:31:17;9.90;83.40
1337;DHT22;662;48.814;9.318;2023-12-14T08:33:42;9.90;83.40
1337;DHT22;662;48.814;9.318;2023-12-14T08:36:08;10.00;82.20
1337;DHT22;662;48.814;9.318;2023-12-14T08:38:34;10.00;82.20
1337;DHT22;662;48.814;9.318;2023-12-14T08:40:59;10.00;82.20
1337;DHT22;662;48.814;9.318;2023-12-14T08:43:26;10.00;82.20
1337;DHT22;662;48.814;9.318;2023-12-14T08:45:51;10.00;82.20
1337;DHT22;662;48.814;9.318;2023-12-14T08:48:17;10.00;82.10
1337;DHT22;662;48.814;9.318;2023-12-14T08:50:43;10.00;82.10
1337;DHT22;662;48.814;9.318;2023-12-14T08:53:09;10.00;82.10
1337;DHT22;662;48.814;9.318;2023-12-14T08:55:35;10.10;82.20
1337;DHT22;662;48.814;9.318;2023-12-14T08:58:00;10.10;82.20
1337;DHT22;662;48.814;9.318;2023-12-14T09:00:26;10.10;82.20
1337;DHT22;662;48.814;9.318;2023-12-14T09:02:51;10.20;82.30
1337;DHT22;662;48.814;9.318;2023-12-14T09:05:18;10.30;82.40
1337;DHT22;662;48.814;9.318;2023-12-14T09:07:46;10.30;82.30
1337;DHT22;662;48.814;9.318;2023-12-14T09:10:12;10.30;82.30
1337;DHT22;662;48.814;9.318;2023-12-14T09:12:37;10.40;82.30
1337;DHT22;662;48.814;9.318;2023-12-14T09:15:04;10.30;82.00
1337;DHT22;662;48.814;9.318;2023-12-14T09:17:29;10.40;81.90
1337;DHT22;662;48.814;9.318;2023-12-14T09:20:02;10.40;81.90
1337;DHT22;662;48.814;9.318;2023-12-14T09:22:30;10.40;81.80
1337;DHT22;662;48.814;9.318;2023-12-14T09:24:56;10.40;81.70
1337;DHT22;662;48.814;9.318;2023-12-14T09:27:22;10.40;81.70
1337;DHT22;662;48.814;9.318;2023-12-14T09:29:47;10.40;81.50
1337;DHT22;662;48.814;9.318;2023-12-14T09:32:13;10.40;81.60
1337;DHT22;662;48.814;9.318;2023-12-14T09:34:39;10.50;81.60
1337;DHT22;662;48.814;9.318;2023-12-14T09:37:04;10.60;81.70
1337;DHT22;662;48.814;9.318;2023-12-14T09:39:30;10.60;81.50
1337;DHT22;662;48.814;9.318;2023-12-14T09:42:03;10.70;81.10
1337;DHT22;662;48.814;9.318;2023-12-14T09:44:33;10.80;80.60
1337;DHT22;662;48.814;9.318;2023-12-14T09:47:00;10.90;80.40
1337;DHT22;662;48.814;9.318;2023-12-14T09:49:27;11.00;80.40
1337;DHT22;662;48.814;9.318;2023-12-14T09:51:59;11.10;80.20
1337;DHT22;662;48.814;9.318;2023-12-14T09:54:26;11.10;79.90
1337;DHT22;662;48.814;9.318;2023-12-14T09:56:52;11.10;79.70
1337;DHT22;662;48.814;9.318;2023-12-14T09:59:19;11.20;80.20
1337;DHT22;662;48.814;9.318;2023-12-14T10:01:44;11.20;79.00
1337;DHT22;662;48.814;9.318;2023-12-14T10:04:15;11.20;79.00
1337;DHT22;662;48.814;9.318;2023-12-14T10:06:42;11.20;78.70
1337;DHT22;662;48.814;9.318;2023-12-14T10:09:09;11.30;78.30
1337;DHT22;662;48.814;9.318;2023-12-14T10:11:42;11.30;76.70
1337;DHT22;662;48.814;9.318;2023-12-14T10:14:37;11.20;76.00
1337;DHT22;662;48.814;9.318;2023-12-14T10:19:43;11.20;76.20
1337;DHT22;662;48.814;9.318;2023-12-14T10:22:09;11.20;76.40
1337;DHT22;662;48.814;9.318;2023-12-14T10:24:35;11.20;76.60
1337;DHT22;662;48.814;9.318;2023-12-14T10:27:05;11.30;76.70
1337;DHT22;662;48.814;9.318;2023-12-14T10:29:37;11.30;76.60
1337;DHT22;662;48.814;9.318;2023-12-14T10:32:04;11.30;76.50
1337;DHT22;662;48.814;9.318;2023-12-14T10:34:32;11.40;76.40
1337;DHT22;662;48.814;9.318;2023-12-14T10:36:58;11.30;75.90
1337;DHT22;662;48.814;9.318;2023-12-14T10:39:26;11.40;75.90
1337;DHT22;662;48.814;9.318;2023-12-14T10:41:52;11.40;76.10
1337;DHT22;662;48.814;9.318;2023-12-14T10:44:21;11.40;76.20
1337;DHT22;662;48.814;9.318;2023-12-14T10:46:48;11.40;76.20
1337;DHT22;662;48.814;9.318;2023-12-14T10:49:15;11.40;76.20
1337;DHT22;662;48.814;9.318;2023-12-14T10:51:41;11.30;76.00
1337;DHT22;662;48.814;9.318;2023-12-14T10:54:08;11.30;76.00
1337;DHT22;662;48.814;9.318;2023-12-14T10:56:34;11.30;76.00
1337;DHT22;662;48.814;9.318;2023-12-14T10:59:01;11.20;75.90
1337;DHT22;662;48.814;9.318;2023-12-14T11:01:28;11.10;75.80
1337;DHT22;662;48.814;9.318;2023-12-14T11:03:59;11.10;76.00
1337;DHT22;662;48.814;9.318;2023-12-14T11:08:55;11.00;76.10
1337;DHT22;662;48.814;9.318;2023-12-14T11:11:21;11.10;76.30
1337;DHT22;662;48.814;9.318;2023-12-14T11:13:52;11.10;76.40
1337;DHT22;662;48.814;9.318;2023-12-14T11:16:22;11.10;76.40
1337;DHT22;662;48.814;9.318;2023-12-14T11:18:48;11.20;76.50
1337;DHT22;662;48.814;9.318;2023-12-14T11:21:25;11.20;76.40
1337;DHT22;662;48.814;9.318;2023-12-14T11:23:51;11.30;76.50
1337;DHT22;662;48.814;9.318;2023-12-14T11:26:21;11.40;76.60
1337;DHT22;662;48.814;9.318;2023-12-14T11:28:50;11.40;76.50
1337;DHT22;662;48.814;9.318;2023-12-14T11:31:16;11.50;76.50
1337;DHT22;662;48.814;9.318;2023-12-14T11:33:42;11.60;76.40
1337;DHT22;662;48.814;9.318;2023-12-14T11:36:11;11.60;76.10
1337;DHT22;662;48.814;9.318;2023-12-14T11:38:37;11.60;75.90
1337;DHT22;662;48.814;9.318;2023-12-14T11:41:03;11.70;75.70
1337;DHT22;662;48.814;9.318;2023-12-14T11:43:28;11.70;75.40
1337;DHT22;662;48.814;9.318;2023-12-14T11:45:55;11.70;75.10
1337;DHT22;662;48.814;9.318;2023-12-14T11:48:24;11.70;75.00
1337;DHT22;662;48.814;9.318;2023-12-14T11:50:49;11.70;74.90
1337;DHT22;662;48.814;9.318;2023-12-14T11:53:15;11.80;74.90
1337;DHT22;662;48.814;9.318;2023-12-14T11:55:42;11.80;74.80
1337;DHT22;662;48.814;9.318;2023-12-14T11:58:11;11.80;74.80
1337;DHT22;662;48.814;9.318;2023-12-14T12:00:39;11.80;74.80
1337;DHT22;662;48.814;9.318;2023-12-14T12:05:42;11.70;74.50
1337;DHT22;662;48.814;9.318;2023-12-14T12:08:09;11.70;74.50
1337;DHT22;662;48.814;9.318;2023-12-14T12:10:36;11.70;74.40
1337;DHT22;662;48.814;9.318;2023-12-14T12:13:07;11.70;75.20
1337;DHT22;662;48.814;9.318;2023-12-14T12:15:33;11.60;74.30
1337;DHT22;662;48.814;9.318;2023-12-14T12:18:09;11.60;74.20
1337;DHT22;662;48.814;9.318;2023-12-14T12:20:35;11.60;74.20
1337;DHT22;662;48.814;9.318;2023-12-14T12:23:02;11.60;74.30
1337;DHT22;662;48.814;9.318;2023-12-14T12:25:29;11.50;74.20
1337;DHT22;662;48.814;9.318;2023-12-14T12:28:00;11.50;74.20
1337;DHT22;662;48.814;9.318;2023-12-14T12:30:27;11.50;74.30
1337;DHT22;662;48.814;9.318;2023-12-14T12:32:52;11.40;74.30
1337;DHT22;662;48.814;9.318;2023-12-14T12:35:23;11.40;74.30
1337;DHT22;662;48.814;9.318;2023-12-14T12:37:49;11.40;74.40
1337;DHT22;662;48.814;9.318;2023-12-14T12:40:23;11.30;74.50
1337;DHT22;662;48.814;9.318;2023-12-14T12:42:51;11.30;74.60
1337;DHT22;662;48.814;9.318;2023-12-14T12:45:17;11.30;74.70
1337;DHT22;662;48.814;9.318;2023-12-14T12:47:53;11.20;74.70
1337;DHT22;662;48.814;9.318;2023-12-14T12:50:18;11.20;74.50
1337;DHT22;662;48.814;9.318;2023-12-14T12:52:44;11.20;74.50
1337;DHT22;662;48.814;9.318;2023-12-14T12:55:13;11.20;74.60
1337;DHT22;662;48.814;9.318;2023-12-14T12:57:39;11.10;74.50
1337;DHT22;662;48.814;9.318;2023-12-14T13:00:06;11.10;74.70
1337;DHT22;662;48.814;9.318;2023-12-14T13:02:37;11.10;74.90
1337;DHT22;662;48.814;9.318;2023-12-14T13:05:03;11.10;75.00
1337;DHT22;662;48.814;9.318;2023-12-14T13:07:30;11.10;75.20
1337;DHT22;662;48.814;9.318;2023-12-14T13:09:55;11.10;75.40
1337;DHT22;662;48.814;9.318;2023-12-14T13:12:21;11.20;75.50
1337;DHT22;662;48.814;9.318;2023-12-14T13:14:46;11.20;75.60
1337;DHT22;662;48.814;9.318;2023-12-14T13:17:12;11.20;75.60
1337;DHT22;662;48.814;9.318;2023-12-14T13:19:38;11.20;75.70
1337;DHT22;662;48.814;9.318;2023-12-14T13:22:03;11.20;75.80
1337;DHT22;662;48.814;9.318;2023-12-14T13:24:30;11.20;75.80
1337;DHT22;662;48.814;9.318;2023-12-14T13:26:55;11.20;75.80
1337;DHT22;662;48.814;9.318;2023-12-14T13:29:21;11.10;75.80
1337;DHT22;662;48.814;9.318;2023-12-14T13:31:47;11.10;75.90
1337;DHT22;662;48.814;9.318;2023-12-14T13:34:13;11.00;75.90
1337;DHT22;662;48.814;9.318;2023-12-14T13:36:38;11.00;76.10
1337;DHT22;662;48.814;9.318;2023-12-14T13:39:04;10.90;75.90
1337;DHT22;662;48.814;9.318;2023-12-14T13:41:31;10.90;75.80
1337;DHT22;662;48.814;9.318;2023-12-14T13:44:00;10.80;75.80
1337;DHT22;662;48.814;9.318;2023-12-14T13:46:26;10.80;75.90
1337;DHT22;662;48.814;9.318;2023-12-14T13:48:51;10.80;76.00
1337;DHT22;662;48.814;9.318;2023-12-14T13:51:18;10.70;76.10
1337;DHT22;662;48.814;9.318;2023-12-14T13:53:44;10.70;76.10
1337;DHT22;662;48.814;9.318;2023-12-14T13:56:10;10.70;76.20
1337;DHT22;662;48.814;9.318;2023-12-14T13:58:36;10.70;76.40
1337;DHT22;662;48.814;9.318;2023-12-14T14:01:04;10.70;76.60
1337;DHT22;662;48.814;9.318;2023-12-14T14:03:33;10.70;76.70
1337;DHT22;662;48.814;9.318;2023-12-14T14:05:58;10.70;76.80
1337;DHT22;662;48.814;9.318;2023-12-14T14:08:24;10.70;77.00
1337;DHT22;662;48.814;9.318;2023-12-14T14:10:50;10.70;77.10
1337;DHT22;662;48.814;9.318;2023-12-14T14:13:15;10.70;77.30
1337;DHT22;662;48.814;9.318;2023-12-14T14:15:41;10.70;77.40
1337;DHT22;662;48.814;9.318;2023-12-14T14:18:07;10.60;77.40
1337;DHT22;662;48.814;9.318;2023-12-14T14:20:32;10.60;77.50
1337;DHT22;662;48.814;9.318;2023-12-14T14:22:58;10.60;77.50
1337;DHT22;662;48.814;9.318;2023-12-14T14:25:25;10.60;77.60
1337;DHT22;662;48.814;9.318;2023-12-14T14:27:51;10.60;77.70
1337;DHT22;662;48.814;9.318;2023-12-14T14:30:17;10.60;77.70
1337;DHT22;662;48.814;9.318;2023-12-14T14:32:43;10.60;77.80
1337;DHT22;662;48.814;9.318;2023-12-14T14:35:11;10.50;77.90
1337;DHT22;662;48.814;9.318;2023-12-14T14:37:37;10.50;77.90
1337;DHT22;662;48.814;9.318;2023-12-14T14:40:04;10.50;77.90
1337;DHT22;662;48.814;9.318;2023-12-14T14:42:30;10.40;77.80
1337;DHT22;662;48.814;9.318;2023-12-14T14:44:56;10.40;77.90
1337;DHT22;662;48.814;9.318;2023-12-14T14:47:21;10.40;78.10
1337;DHT22;662;48.814;9.318;2023-12-14T14:49:49;10.40;78.20
1337;DHT22;662;48.814;9.318;2023-12-14T14:52:16;10.30;78.20
1337;DHT22;662;48.814;9.318;2023-12-14T14:54:42;10.30;78.20
1337;DHT22;662;48.814;9.318;2023-12-14T14:57:08;10.30;78.40
1337;DHT22;662;48.814;9.318;2023-12-14T14:59:34;10.30;78.40
1337;DHT22;662;48.814;9.318;2023-12-14T15:01:59;10.30;78.40
1337;DHT22;662;48.814;9.318;2023-12-14T15:04:27;10.30;78.40
1337;DHT22;662;48.814;9.318;2023-12-14T15:06:52;10.30;78.50
1337;DHT22;662;48.814;9.318;2023-12-14T15:09:18;10.30;78.60
1337;DHT22;662;48.814;9.318;2023-12-14T15:11:44;10.30;78.60
1337;DHT22;662;48.814;9.318;2023-12-14T15:14:09;10.30;78.70
1337;DHT22;662;48.814;9.318;2023-12-14T15:16:36;10.30;78.80
1337;DHT22;662;48.814;9.318;2023-12-14T15:19:01;10.20;78.70
1337;DHT22;662;48.814;9.318;2023-12-14T15:21:27;10.20;78.80
1337;DHT22;662;48.814;9.318;2023-12-14T15:23:53;10.20;78.80
1337;DHT22;662;48.814;9.318;2023-12-14T15:26:19;10.20;78.80
1337;DHT22;662;48.814;9.318;2023-12-14T15:28:45;10.20;79.00
1337;DHT22;662;48.814;9.318;2023-12-14T15:31:11;10.20;79.00
1337;DHT22;662;48.814;9.318;2023-12-14T15:33:37;10.20;79.00
1337;DHT22;662;48.814;9.318;2023-12-14T15:36:02;10.20;79.10
1337;DHT22;662;48.814;9.318;2023-12-14T15:38:28;10.20;79.20
1337;DHT22;662;48.814;9.318;2023-12-14T15:40:54;10.20;79.20
1337;DHT22;662;48.814;9.318;2023-12-14T15:43:20;10.20;79.30
1337;DHT22;662;48.814;9.318;2023-12-14T15:45:45;10.20;79.30
1337;DHT22;662;48.814;9.318;2023-12-14T15:48:11;10.20;79.40
1337;DHT22;662;48.814;9.318;2023-12-14T15:50:37;10.20;79.40
1337;DHT22;662;48.814;9.318;2023-12-14T15:53:04;10.20;79.40
1337;DHT22;662;48.814;9.318;2023-12-14T15:55:30;10.20;79.40
1337;DHT22;662;48.814;9.318;2023-12-14T15:57:56;10.20;79.50
1337;DHT22;662;48.814;9.318;2023-12-14T16:00:21;10.20;79.50
1337;DHT22;662;48.814;9.318;2023-12-14T16:02:47;10.20;79.50
1337;DHT22;662;48.814;9.318;2023-12-14T16:05:13;10.10;79.50
1337;DHT22;662;48.814;9.318;2023-12-14T16:07:39;10.10;79.50
1337;DHT22;662;48.814;9.318;2023-12-14T16:10:05;10.10;79.50
1337;DHT22;662;48.814;9.318;2023-12-14T16:12:31;10.10;79.60
1337;DHT22;662;48.814;9.318;2023-12-14T16:14:56;10.10;79.70
1337;DHT22;662;48.814;9.318;2023-12-14T16:17:23;10.10;79.70
1337;DHT22;662;48.814;9.318;2023-12-14T16:19:49;10.10;79.80
1337;DHT22;662;48.814;9.318;2023-12-14T16:22:14;10.00;79.60
1337;DHT22;662;48.814;9.318;2023-12-14T16:24:40;10.00;79.60
1337;DHT22;662;48.814;9.318;2023-12-14T16:27:06;10.00;79.70